createdAt,value
2016-10-23T00:00:19.862Z,19.66
2016-10-23T00:01:33.370Z,19.8
2016-10-23T00:02:46.428Z,19.81
2016-10-23T00:03:59.947Z,19.8
2016-10-23T00:05:13.490Z,19.74
2016-10-23T00:06:27.045Z,19.74
2016-10-23T00:07:40.580Z,19.77
2016-10-23T00:08:54.134Z,19.69
2016-10-23T00:10:07.134Z,19.78
2016-10-23T00:11:20.134Z,19.71
2016-10-23T00:12:33.642Z,19.66
2016-10-23T00:13:47.166Z,19.65
2016-10-23T00:15:00.233Z,19.63
2016-10-23T00:16:13.757Z,19.59
2016-10-23T00:17:27.307Z,19.63
2016-10-23T00:18:40.611Z,19.69
2016-10-23T00:19:54.142Z,19.63
2016-10-23T00:21:07.725Z,19.66
2016-10-23T00:22:21.204Z,19.63
2016-10-23T00:23:34.479Z,19.63
2016-10-23T00:24:48.019Z,19.61
2016-10-23T00:26:01.127Z,19.56
2016-10-23T00:27:14.655Z,19.55
2016-10-23T00:28:28.219Z,19.48
2016-10-23T00:29:41.712Z,19.51
2016-10-23T00:30:55.618Z,19.56
2016-10-23T00:32:09.149Z,19.59
2016-10-23T00:33:22.716Z,19.62
2016-10-23T00:34:36.178Z,19.59
2016-10-23T00:35:49.705Z,19.59
2016-10-23T00:37:03.214Z,19.54
2016-10-23T00:38:16.724Z,19.62
2016-10-23T00:39:30.197Z,19.62
2016-10-23T00:40:43.730Z,19.65
2016-10-23T00:41:57.286Z,19.55
2016-10-23T00:43:10.789Z,19.51
2016-10-23T00:44:24.053Z,19.54
2016-10-23T00:45:37.534Z,19.51
2016-10-23T00:46:51.091Z,19.58
2016-10-23T00:48:04.667Z,19.5
2016-10-23T00:49:18.281Z,19.58
2016-10-23T00:50:31.305Z,19.46
2016-10-23T00:51:44.513Z,19.48
2016-10-23T00:52:58.017Z,19.41
2016-10-23T00:54:11.553Z,19.44
2016-10-23T00:55:25.649Z,19.43
2016-10-23T00:56:38.690Z,19.43
2016-10-23T00:57:52.406Z,19.46
2016-10-23T00:59:05.874Z,19.39
2016-10-23T01:00:19.495Z,19.37
2016-10-23T01:01:33.078Z,19.47
2016-10-23T01:02:46.452Z,19.47
2016-10-23T01:03:59.449Z,19.46
2016-10-23T01:05:12.698Z,19.4
2016-10-23T01:06:26.266Z,19.46
2016-10-23T01:07:39.812Z,19.44
2016-10-23T01:08:53.329Z,19.54
2016-10-23T01:10:06.338Z,19.47
2016-10-23T01:11:19.790Z,19.5
2016-10-23T01:12:33.309Z,19.51
2016-10-23T01:13:46.820Z,19.5
2016-10-23T01:15:00.390Z,19.63
2016-10-23T01:16:13.353Z,19.5
2016-10-23T01:17:26.637Z,19.56
2016-10-23T01:18:40.124Z,19.51
2016-10-23T01:19:53.747Z,19.5
2016-10-23T01:21:07.264Z,19.58
2016-10-23T01:22:20.239Z,19.55
2016-10-23T01:23:33.740Z,19.4
2016-10-23T01:24:46.723Z,19.48
2016-10-23T01:26:00.214Z,19.5
2016-10-23T01:27:13.674Z,19.51
2016-10-23T01:28:26.746Z,19.54
2016-10-23T01:29:40.321Z,19.48
2016-10-23T01:30:53.581Z,19.51
2016-10-23T01:32:07.140Z,19.56
2016-10-23T01:33:20.620Z,19.48
2016-10-23T01:34:34.116Z,19.47
2016-10-23T01:35:47.821Z,19.41
2016-10-23T01:37:01.326Z,19.37
2016-10-23T01:38:14.852Z,19.29
2016-10-23T01:39:27.816Z,19.4
2016-10-23T01:40:41.395Z,19.37
2016-10-23T01:41:54.895Z,19.33
2016-10-23T01:43:08.435Z,19.29
2016-10-23T01:44:21.728Z,19.26
2016-10-23T01:45:34.949Z,19.26
2016-10-23T01:46:48.439Z,19.13
2016-10-23T01:48:01.921Z,19.16
2016-10-23T01:49:15.411Z,19.22
2016-10-23T01:50:30.406Z,19.16
2016-10-23T01:51:43.998Z,19.23
2016-10-23T01:52:57.523Z,19.31
2016-10-23T01:54:11.073Z,19.32
2016-10-23T01:55:24.614Z,19.25
2016-10-23T01:56:37.881Z,19.19
2016-10-23T01:57:51.406Z,19.25
2016-10-23T01:59:04.991Z,19.18
2016-10-23T02:00:18.509Z,19.23
2016-10-23T02:01:31.502Z,19.21
2016-10-23T02:02:45.013Z,19.16
2016-10-23T02:03:58.513Z,19.22
2016-10-23T02:05:12.027Z,19.13
2016-10-23T02:06:25.590Z,19.04
2016-10-23T02:07:38.615Z,19.16
2016-10-23T02:08:52.116Z,19.21
2016-10-23T02:10:05.608Z,19.13
2016-10-23T02:11:18.617Z,19.21
2016-10-23T02:12:32.164Z,19.19
2016-10-23T02:13:45.767Z,19.21
2016-10-23T02:14:59.315Z,19.26
2016-10-23T02:16:12.838Z,19.36
2016-10-23T02:17:26.032Z,19.32
2016-10-23T02:18:39.573Z,19.23
2016-10-23T02:19:53.046Z,19.29
2016-10-23T02:21:06.041Z,19.29
2016-10-23T02:22:19.648Z,19.28
2016-10-23T02:23:33.236Z,19.21
2016-10-23T02:24:46.793Z,19.22
2016-10-23T02:26:00.288Z,19.18
2016-10-23T02:27:13.847Z,19.21
2016-10-23T02:28:27.361Z,19.18
2016-10-23T02:29:40.913Z,19.14
2016-10-23T02:30:53.924Z,19.19
2016-10-23T02:32:07.432Z,19.18
2016-10-23T02:33:20.993Z,19.26
2016-10-23T02:34:34.526Z,19.29
2016-10-23T02:36:03.956Z,19.26
2016-10-23T02:37:17.517Z,19.23
2016-10-23T02:38:30.685Z,19.31
2016-10-23T02:39:44.440Z,19.31
2016-10-23T02:40:58.021Z,19.32
2016-10-23T02:42:11.603Z,19.23
2016-10-23T02:43:24.993Z,19.29
2016-10-23T02:44:38.584Z,19.31
2016-10-23T02:45:52.139Z,19.36
2016-10-23T02:47:05.233Z,19.32
2016-10-23T02:48:18.829Z,19.33
2016-10-23T02:49:32.444Z,19.26
2016-10-23T02:50:46.054Z,19.29
2016-10-23T02:51:59.980Z,19.28
2016-10-23T02:53:13.608Z,19.25
2016-10-23T02:54:27.223Z,19.32
2016-10-23T02:55:40.809Z,19.23
2016-10-23T02:56:54.537Z,19.19
2016-10-23T02:58:08.117Z,19.28
2016-10-23T02:59:21.768Z,19.29
2016-10-23T03:00:35.345Z,19.28
2016-10-23T03:01:48.965Z,19.4
2016-10-23T03:03:02.508Z,19.29
2016-10-23T03:04:16.454Z,19.4
2016-10-23T03:05:30.062Z,19.33
2016-10-23T03:06:43.740Z,19.26
2016-10-23T03:07:57.400Z,19.39
2016-10-23T03:09:11.001Z,19.26
2016-10-23T03:10:24.580Z,19.41
2016-10-23T03:11:38.231Z,19.4
2016-10-23T03:12:51.809Z,19.33
2016-10-23T03:14:05.354Z,19.37
2016-10-23T03:15:18.893Z,19.28
2016-10-23T03:16:32.473Z,19.29
2016-10-23T03:17:46.084Z,19.4
2016-10-23T03:18:59.912Z,19.44
2016-10-23T03:20:13.536Z,19.4
2016-10-23T03:21:27.191Z,19.4
2016-10-23T03:22:40.832Z,19.43
2016-10-23T03:23:54.479Z,19.4
2016-10-23T03:25:08.088Z,19.44
2016-10-23T03:26:21.116Z,19.36
2016-10-23T03:27:34.762Z,19.4
2016-10-23T03:28:48.357Z,19.43
2016-10-23T03:30:01.957Z,19.41
2016-10-23T03:31:15.539Z,19.44
2016-10-23T03:32:29.121Z,19.44
2016-10-23T03:33:42.715Z,19.46
2016-10-23T03:34:56.323Z,19.47
2016-10-23T03:36:09.910Z,19.41
2016-10-23T03:37:23.515Z,19.37
2016-10-23T03:38:37.101Z,19.4
2016-10-23T03:39:50.665Z,19.44
2016-10-23T03:41:03.795Z,19.37
2016-10-23T03:42:17.427Z,19.29
2016-10-23T03:43:31.020Z,19.39
2016-10-23T03:44:44.058Z,19.36
2016-10-23T03:45:57.669Z,19.41
2016-10-23T03:47:11.300Z,19.4
2016-10-23T03:48:24.880Z,19.4
2016-10-23T03:49:37.445Z,19.4
2016-10-23T03:50:50.986Z,19.39
2016-10-23T03:52:04.633Z,19.44
2016-10-23T03:53:18.250Z,19.48
2016-10-23T03:54:31.849Z,19.47
2016-10-23T03:55:44.924Z,19.39
2016-10-23T03:56:58.221Z,19.46
2016-10-23T03:58:11.776Z,19.55
2016-10-23T03:59:25.368Z,19.51
2016-10-23T04:00:38.937Z,19.46
2016-10-23T04:01:52.698Z,19.46
2016-10-23T04:03:06.305Z,19.47
2016-10-23T04:04:19.976Z,19.47
2016-10-23T04:05:33.663Z,19.44
2016-10-23T04:06:47.274Z,19.39
2016-10-23T04:08:00.334Z,19.47
2016-10-23T04:09:13.892Z,19.48
2016-10-23T04:10:27.454Z,19.37
2016-10-23T04:11:41.093Z,19.44
2016-10-23T04:12:54.662Z,19.41
2016-10-23T04:14:08.273Z,19.4
2016-10-23T04:15:21.836Z,19.41
2016-10-23T04:16:35.516Z,19.43
2016-10-23T04:17:48.780Z,19.43
2016-10-23T04:19:02.369Z,19.43
2016-10-23T04:20:15.437Z,19.41
2016-10-23T04:21:29.067Z,19.44
2016-10-23T04:22:42.727Z,19.43
2016-10-23T04:23:56.313Z,19.43
2016-10-23T04:25:09.878Z,19.47
2016-10-23T04:26:23.459Z,19.55
2016-10-23T04:27:37.078Z,19.39
2016-10-23T04:28:50.761Z,19.44
2016-10-23T04:30:04.323Z,19.46
2016-10-23T04:31:17.919Z,19.48
2016-10-23T04:32:31.504Z,19.44
2016-10-23T04:33:45.027Z,19.36
2016-10-23T04:34:58.478Z,19.31
2016-10-23T04:36:12.020Z,19.31
2016-10-23T04:37:25.622Z,19.46
2016-10-23T04:38:39.191Z,19.41
2016-10-23T04:39:55.755Z,19.37
2016-10-23T04:41:09.352Z,19.36
2016-10-23T04:42:22.768Z,19.32
2016-10-23T04:43:36.476Z,19.41
2016-10-23T04:44:50.017Z,19.4
2016-10-23T04:46:03.676Z,19.4
2016-10-23T04:47:17.018Z,19.43
2016-10-23T04:48:30.532Z,19.46
2016-10-23T04:49:44.025Z,19.44
2016-10-23T04:50:57.533Z,19.44
2016-10-23T04:52:10.561Z,19.43
2016-10-23T04:53:24.063Z,19.4
2016-10-23T04:54:37.073Z,19.43
2016-10-23T04:55:50.586Z,19.39
2016-10-23T04:57:04.164Z,19.5
2016-10-23T04:58:17.675Z,19.43
2016-10-23T04:59:31.198Z,19.36
2016-10-23T05:00:44.729Z,19.46
2016-10-23T05:01:58.367Z,19.47
2016-10-23T05:03:11.977Z,19.4
2016-10-23T05:04:25.399Z,19.4
2016-10-23T05:05:38.461Z,19.4
2016-10-23T05:06:51.960Z,19.43
2016-10-23T05:08:05.698Z,19.25
2016-10-23T05:09:19.517Z,19.31
2016-10-23T05:10:32.999Z,19.32
2016-10-23T05:11:46.569Z,19.23
2016-10-23T05:12:59.589Z,19.32
2016-10-23T05:14:13.110Z,19.23
2016-10-23T05:15:26.801Z,19.28
2016-10-23T05:16:40.387Z,19.26
2016-10-23T05:17:53.916Z,19.28
2016-10-23T05:19:07.477Z,19.29
2016-10-23T05:20:20.999Z,19.37
2016-10-23T05:21:34.514Z,19.32
2016-10-23T05:22:48.041Z,19.47
2016-10-23T05:24:01.241Z,19.4
2016-10-23T05:25:14.812Z,19.51
2016-10-23T05:26:28.035Z,19.43
2016-10-23T05:27:41.569Z,19.43
2016-10-23T05:28:55.100Z,19.4
2016-10-23T05:30:08.098Z,19.39
2016-10-23T05:31:21.310Z,19.5
2016-10-23T05:32:34.902Z,19.28
2016-10-23T05:33:48.414Z,19.37
2016-10-23T05:35:01.951Z,19.26
2016-10-23T05:36:15.215Z,19.31
2016-10-23T05:37:28.781Z,19.29
2016-10-23T05:38:42.318Z,19.41
2016-10-23T05:39:55.834Z,19.33
2016-10-23T05:41:09.394Z,19.43
2016-10-23T05:42:22.869Z,19.31
2016-10-23T05:43:36.132Z,19.26
2016-10-23T05:44:49.645Z,19.26
2016-10-23T05:46:03.167Z,19.32
2016-10-23T05:47:16.739Z,19.23
2016-10-23T05:48:30.279Z,19.33
2016-10-23T05:49:43.884Z,19.29
2016-10-23T05:50:56.832Z,19.21
2016-10-23T05:52:10.383Z,19.31
2016-10-23T05:53:23.894Z,19.31
2016-10-23T05:54:37.469Z,19.29
2016-10-23T05:55:51.107Z,19.18
2016-10-23T05:57:04.615Z,19.22
2016-10-23T05:58:17.619Z,19.19
2016-10-23T05:59:31.158Z,19.32
2016-10-23T06:00:44.194Z,19.22
2016-10-23T06:01:57.769Z,19.32
2016-10-23T06:03:11.268Z,19.29
2016-10-23T06:04:24.834Z,19.36
2016-10-23T06:05:37.829Z,19.26
2016-10-23T06:06:51.310Z,19.26
2016-10-23T06:08:04.804Z,19.39
2016-10-23T06:09:18.272Z,19.44
2016-10-23T06:10:31.760Z,19.41
2016-10-23T06:11:45.286Z,19.4
2016-10-23T06:12:58.797Z,19.29
2016-10-23T06:14:12.335Z,19.32
2016-10-23T06:15:25.361Z,19.29
2016-10-23T06:16:38.819Z,19.41
2016-10-23T06:17:52.302Z,19.33
2016-10-23T06:19:05.314Z,19.4
2016-10-23T06:20:18.854Z,19.41
2016-10-23T06:21:32.357Z,19.44
2016-10-23T06:22:45.610Z,19.4
2016-10-23T06:23:59.190Z,19.43
2016-10-23T06:25:12.702Z,19.44
2016-10-23T06:26:25.661Z,19.37
2016-10-23T06:27:38.602Z,19.23
2016-10-23T06:28:52.087Z,19.33
2016-10-23T06:30:05.647Z,19.33
2016-10-23T06:31:18.598Z,19.32
2016-10-23T06:32:32.119Z,19.21
2016-10-23T06:33:45.629Z,19.22
2016-10-23T06:34:59.125Z,19.19
2016-10-23T06:36:12.641Z,19.16
2016-10-23T06:37:25.738Z,19.18
2016-10-23T06:38:39.242Z,19.21
2016-10-23T06:39:52.853Z,19.08
2016-10-23T06:41:06.406Z,19.19
2016-10-23T06:42:19.924Z,19.19
2016-10-23T06:43:32.873Z,19.19
2016-10-23T06:44:46.553Z,19.23
2016-10-23T06:45:59.088Z,19.22
2016-10-23T06:47:12.642Z,19.13
2016-10-23T06:48:24.880Z,19.19
2016-10-23T06:49:38.407Z,19.14
2016-10-23T06:50:51.943Z,19.16
2016-10-23T06:52:05.410Z,19.13
2016-10-23T06:53:18.365Z,19.14
2016-10-23T06:54:31.897Z,19.13
2016-10-23T06:55:44.849Z,19.19
2016-10-23T06:56:57.897Z,19.16
2016-10-23T06:58:11.663Z,19.21
2016-10-23T06:59:25.217Z,19.22
2016-10-23T07:00:38.196Z,19.29
2016-10-23T07:01:51.164Z,19.32
2016-10-23T07:03:04.756Z,19.28
2016-10-23T07:04:18.275Z,19.37
2016-10-23T07:05:31.804Z,19.33
2016-10-23T07:06:45.288Z,19.31
2016-10-23T07:07:58.829Z,19.22
2016-10-23T07:09:12.345Z,19.33
2016-10-23T07:10:25.776Z,19.39
2016-10-23T07:11:39.248Z,19.31
2016-10-23T07:12:52.811Z,19.33
2016-10-23T07:14:06.370Z,19.32
2016-10-23T07:15:19.538Z,19.32
2016-10-23T07:16:33.048Z,19.31
2016-10-23T07:17:46.086Z,19.16
2016-10-23T07:18:59.601Z,19.13
2016-10-23T07:20:13.127Z,19.13
2016-10-23T07:21:26.875Z,19.18
2016-10-23T07:22:40.440Z,19.02
2016-10-23T07:23:53.449Z,19
2016-10-23T07:25:06.967Z,19.02
2016-10-23T07:26:20.039Z,19.21
2016-10-23T07:27:33.044Z,19.19
2016-10-23T07:28:46.594Z,19.14
2016-10-23T07:29:59.553Z,19.26
2016-10-23T07:31:13.017Z,19.33
2016-10-23T07:32:26.010Z,19.31
2016-10-23T07:33:39.556Z,19.26
2016-10-23T07:34:52.774Z,19.32
2016-10-23T07:36:05.463Z,19.36
2016-10-23T07:37:18.467Z,19.23
2016-10-23T07:38:32.057Z,19.31
2016-10-23T07:39:45.518Z,19.28
2016-10-23T07:40:59.064Z,19.31
2016-10-23T07:42:12.603Z,19.31
2016-10-23T07:43:25.531Z,19.18
2016-10-23T07:44:39.147Z,19.16
2016-10-23T07:45:52.725Z,19.21
2016-10-23T07:47:06.293Z,19.26
2016-10-23T07:48:19.614Z,19.29
2016-10-23T07:49:33.174Z,19.32
2016-10-23T07:50:46.707Z,19.33
2016-10-23T07:52:00.224Z,19.31
2016-10-23T07:53:13.778Z,19.28
2016-10-23T07:54:26.984Z,19.37
2016-10-23T07:55:40.579Z,19.26
2016-10-23T07:56:53.555Z,19.28
2016-10-23T07:58:07.096Z,19.32
2016-10-23T07:59:20.658Z,19.29
2016-10-23T08:00:34.222Z,19.32
2016-10-23T08:01:47.702Z,19.33
2016-10-23T08:03:01.250Z,19.28
2016-10-23T08:04:14.203Z,19.26
2016-10-23T08:05:27.220Z,19.23
2016-10-23T08:06:40.714Z,19.29
2016-10-23T08:07:54.207Z,19.36
2016-10-23T08:09:07.792Z,19.31
2016-10-23T08:10:21.327Z,19.4
2016-10-23T08:11:34.825Z,19.4
2016-10-23T08:12:48.130Z,19.39
2016-10-23T08:14:01.632Z,19.36
2016-10-23T08:15:15.197Z,19.37
2016-10-23T08:16:28.408Z,19.47
2016-10-23T08:17:41.920Z,19.47
2016-10-23T08:18:54.932Z,19.5
2016-10-23T08:20:08.510Z,19.54
2016-10-23T08:21:21.764Z,19.5
2016-10-23T08:22:35.308Z,19.54
2016-10-23T08:23:48.373Z,19.46
2016-10-23T08:25:01.148Z,19.54
2016-10-23T08:26:14.781Z,19.46
2016-10-23T08:27:28.300Z,19.48
2016-10-23T08:28:41.735Z,19.46
2016-10-23T08:29:54.760Z,19.4
2016-10-23T08:31:08.332Z,19.44
2016-10-23T08:32:21.872Z,19.41
2016-10-23T08:33:34.615Z,19.37
2016-10-23T08:34:48.164Z,19.47
2016-10-23T08:36:01.166Z,19.32
2016-10-23T08:37:14.735Z,19.56
2016-10-23T08:38:28.278Z,19.48
2016-10-23T08:39:41.260Z,19.37
2016-10-23T08:40:54.787Z,19.47
2016-10-23T08:42:08.307Z,19.43
2016-10-23T08:43:21.851Z,19.39
2016-10-23T08:44:34.811Z,19.4
2016-10-23T08:45:48.332Z,19.54
2016-10-23T08:47:01.831Z,19.56
2016-10-23T08:48:15.325Z,19.47
2016-10-23T08:49:28.936Z,19.47
2016-10-23T08:50:41.994Z,19.51
2016-10-23T08:51:55.515Z,19.55
2016-10-23T08:53:09.055Z,19.54
2016-10-23T08:54:22.824Z,19.54
2016-10-23T08:55:36.355Z,19.56
2016-10-23T08:56:49.875Z,19.54
2016-10-23T08:58:03.397Z,19.56
2016-10-23T08:59:16.905Z,19.54
2016-10-23T09:00:30.380Z,19.58
2016-10-23T09:01:43.380Z,19.5
2016-10-23T09:02:57.136Z,19.5
2016-10-23T09:04:10.658Z,19.55
2016-10-23T09:05:24.197Z,19.51
2016-10-23T09:06:37.671Z,19.54
2016-10-23T09:07:50.700Z,19.56
2016-10-23T09:09:04.229Z,19.55
2016-10-23T09:10:17.830Z,19.54
2016-10-23T09:11:31.382Z,19.5
2016-10-23T09:12:44.841Z,19.55
2016-10-23T09:13:58.314Z,19.62
2016-10-23T09:15:11.826Z,19.44
2016-10-23T09:16:25.326Z,19.55
2016-10-23T09:17:38.788Z,19.65
2016-10-23T09:18:52.350Z,19.66
2016-10-23T09:20:05.075Z,19.63
2016-10-23T09:21:18.598Z,19.62
2016-10-23T09:22:32.098Z,19.66
2016-10-23T09:23:45.608Z,19.66
2016-10-23T09:24:56.509Z,19.62
2016-10-23T09:26:10.107Z,19.69
2016-10-23T09:27:23.594Z,19.71
2016-10-23T09:28:37.185Z,19.81
2016-10-23T09:29:50.704Z,19.8
2016-10-23T09:31:04.327Z,19.92
2016-10-23T09:32:17.777Z,19.91
2016-10-23T09:33:31.287Z,19.95
2016-10-23T09:34:44.790Z,19.99
2016-10-23T09:35:58.299Z,20.08
2016-10-23T09:37:11.893Z,20.02
2016-10-23T09:38:25.430Z,19.99
2016-10-23T09:39:38.926Z,20.06
2016-10-23T09:40:52.217Z,20.14
2016-10-23T09:42:05.175Z,20.14
2016-10-23T09:43:18.739Z,20.28
2016-10-23T09:44:32.287Z,20.35
2016-10-23T09:45:45.834Z,20.33
2016-10-23T09:46:58.573Z,20.33
2016-10-23T09:48:12.182Z,20.32
2016-10-23T09:49:25.180Z,20.26
2016-10-23T09:50:38.779Z,20.41
2016-10-23T09:51:52.349Z,20.35
2016-10-23T09:53:05.860Z,20.43
2016-10-23T09:54:19.655Z,20.43
2016-10-23T09:55:33.199Z,20.28
2016-10-23T09:56:46.768Z,20.38
2016-10-23T09:58:00.266Z,20.47
2016-10-23T09:59:13.875Z,20.43
2016-10-23T10:00:27.405Z,20.36
2016-10-23T10:01:40.957Z,20.28
2016-10-23T10:02:54.538Z,20.35
2016-10-23T10:04:08.154Z,20.35
2016-10-23T10:05:21.650Z,20.36
2016-10-23T10:06:35.229Z,20.32
2016-10-23T10:07:48.220Z,20.36
2016-10-23T10:09:01.762Z,20.38
2016-10-23T10:10:15.309Z,20.31
2016-10-23T10:11:28.883Z,20.33
2016-10-23T10:12:42.404Z,20.35
2016-10-23T10:13:55.915Z,20.42
2016-10-23T10:15:08.940Z,20.33
2016-10-23T10:16:22.251Z,20.33
2016-10-23T10:17:35.542Z,20.42
2016-10-23T10:18:49.108Z,20.42
2016-10-23T10:20:02.685Z,20.41
2016-10-23T10:21:16.273Z,20.43
2016-10-23T10:22:30.298Z,20.42
2016-10-23T10:23:43.865Z,20.47
2016-10-23T10:24:57.430Z,20.5
2016-10-23T10:26:10.959Z,20.48
2016-10-23T10:27:24.488Z,20.42
2016-10-23T10:28:37.964Z,20.48
2016-10-23T10:29:51.466Z,20.58
2016-10-23T10:31:04.987Z,20.66
2016-10-23T10:32:18.488Z,20.72
2016-10-23T10:33:32.047Z,20.66
2016-10-23T10:34:45.628Z,20.79
2016-10-23T10:35:58.666Z,20.8
2016-10-23T10:37:12.266Z,20.82
2016-10-23T10:38:25.303Z,20.76
2016-10-23T10:39:38.847Z,20.8
2016-10-23T10:40:52.409Z,20.88
2016-10-23T10:42:05.946Z,20.88
2016-10-23T10:43:18.929Z,20.94
2016-10-23T10:44:32.497Z,20.87
2016-10-23T10:45:45.521Z,20.88
2016-10-23T10:46:58.542Z,20.85
2016-10-23T10:48:12.026Z,20.88
2016-10-23T10:49:25.847Z,20.97
2016-10-23T10:50:39.397Z,20.89
2016-10-23T10:51:52.985Z,20.95
2016-10-23T10:53:06.625Z,20.89
2016-10-23T10:54:20.157Z,20.92
2016-10-23T10:55:33.153Z,20.95
2016-10-23T10:56:46.777Z,21.14
2016-10-23T10:58:00.308Z,21.28
2016-10-23T10:59:14.650Z,21.35
2016-10-23T11:00:27.679Z,21.49
2016-10-23T11:01:41.215Z,21.59
2016-10-23T11:02:54.794Z,21.65
2016-10-23T11:04:08.396Z,21.75
2016-10-23T11:05:21.690Z,21.61
2016-10-23T11:06:35.199Z,21.59
2016-10-23T11:07:48.719Z,21.64
2016-10-23T11:09:02.254Z,21.75
2016-10-23T11:10:15.835Z,21.91
2016-10-23T11:11:29.403Z,21.88
2016-10-23T11:12:42.907Z,21.91
2016-10-23T11:13:56.439Z,21.92
2016-10-23T11:15:10.017Z,21.96
2016-10-23T11:16:23.560Z,21.94
2016-10-23T11:17:37.133Z,22.1
2016-10-23T11:18:50.694Z,22.09
2016-10-23T11:20:04.190Z,22.18
2016-10-23T11:21:17.706Z,22.27
2016-10-23T11:22:31.019Z,22.4
2016-10-23T11:23:44.055Z,22.35
2016-10-23T11:24:57.620Z,22.49
2016-10-23T11:26:11.149Z,22.57
2016-10-23T11:27:24.677Z,22.52
2016-10-23T11:28:38.183Z,22.52
2016-10-23T11:29:51.771Z,22.62
2016-10-23T11:31:05.349Z,22.64
2016-10-23T11:32:18.360Z,22.39
2016-10-23T11:33:32.001Z,22.47
2016-10-23T11:34:45.480Z,22.62
2016-10-23T11:35:59.052Z,22.6
2016-10-23T11:37:12.653Z,22.6
2016-10-23T11:38:26.281Z,22.64
2016-10-23T11:39:39.798Z,22.85
2016-10-23T11:40:53.341Z,22.86
2016-10-23T11:42:06.375Z,22.77
2016-10-23T11:43:19.937Z,22.88
2016-10-23T11:44:33.169Z,22.95
2016-10-23T11:45:46.741Z,22.94
2016-10-23T11:47:00.104Z,23.04
2016-10-23T11:48:13.585Z,22.88
2016-10-23T11:49:27.196Z,22.9
2016-10-23T11:50:40.757Z,22.88
2016-10-23T11:51:54.256Z,22.97
2016-10-23T11:53:07.304Z,23.13
2016-10-23T11:54:20.838Z,23.17
2016-10-23T11:55:34.370Z,23.27
2016-10-23T11:56:47.869Z,23.19
2016-10-23T11:58:01.393Z,23.2
2016-10-23T11:59:14.956Z,23.27
2016-10-23T12:00:27.960Z,23.35
2016-10-23T12:01:41.475Z,23.53
2016-10-23T12:02:54.987Z,23.65
2016-10-23T12:04:08.513Z,23.79
2016-10-23T12:05:22.146Z,23.75
2016-10-23T12:06:35.648Z,23.9
2016-10-23T12:07:49.199Z,24.02
2016-10-23T12:09:16.688Z,24
2016-10-23T12:10:30.294Z,23.97
2016-10-23T12:11:43.554Z,23.8
2016-10-23T12:12:57.285Z,23.9
2016-10-23T12:14:10.942Z,23.95
2016-10-23T12:15:24.562Z,23.93
2016-10-23T12:16:38.077Z,24.09
2016-10-23T12:17:51.633Z,24.1
2016-10-23T12:19:05.221Z,24.31
2016-10-23T12:20:18.492Z,24.55
2016-10-23T12:21:31.537Z,24.78
2016-10-23T12:22:44.999Z,24.62
2016-10-23T12:23:58.530Z,24.47
2016-10-23T12:25:12.062Z,24.35
2016-10-23T12:26:25.579Z,24.22
2016-10-23T12:27:38.859Z,24.37
2016-10-23T12:28:52.372Z,24.62
2016-10-23T12:30:05.845Z,24.46
2016-10-23T12:31:18.871Z,24.5
2016-10-23T12:32:31.916Z,24.71
2016-10-23T12:33:44.981Z,24.57
2016-10-23T12:34:57.989Z,24.77
2016-10-23T12:36:11.576Z,24.71
2016-10-23T12:37:25.160Z,24.8
2016-10-23T12:38:38.751Z,25
2016-10-23T12:39:52.317Z,25.09
2016-10-23T12:41:05.938Z,25.08
2016-10-23T12:42:19.773Z,25.24
2016-10-23T12:43:33.454Z,25.51
2016-10-23T12:44:47.066Z,25.5
2016-10-23T12:46:00.679Z,25.5
2016-10-23T12:47:14.186Z,25.54
2016-10-23T12:48:27.795Z,25.7
2016-10-23T12:49:40.819Z,25.92
2016-10-23T12:50:54.002Z,25.98
2016-10-23T12:52:07.522Z,25.87
2016-10-23T12:53:21.030Z,25.9
2016-10-23T12:54:34.609Z,26.07
2016-10-23T12:55:47.628Z,25.88
2016-10-23T12:57:00.625Z,25.85
2016-10-23T12:58:14.161Z,26.06
2016-10-23T12:59:27.215Z,26.25
2016-10-23T13:00:40.792Z,26.43
2016-10-23T13:01:53.565Z,26.73
2016-10-23T13:03:07.056Z,26.67
2016-10-23T13:04:20.669Z,26.73
2016-10-23T13:05:33.721Z,26.91
2016-10-23T13:06:46.872Z,27.1
2016-10-23T13:07:59.963Z,27.14
2016-10-23T13:09:13.560Z,27.22
2016-10-23T13:10:27.348Z,27.25
2016-10-23T13:11:40.933Z,27.37
2016-10-23T13:12:54.467Z,27.17
2016-10-23T13:14:07.438Z,27.12
2016-10-23T13:15:20.977Z,27.21
2016-10-23T13:16:34.532Z,27.14
2016-10-23T13:17:48.142Z,27.29
2016-10-23T13:19:01.172Z,27.28
2016-10-23T13:20:14.689Z,27.36
2016-10-23T13:21:28.230Z,27.27
2016-10-23T13:22:41.810Z,27.21
2016-10-23T13:23:55.409Z,27.14
2016-10-23T13:25:08.988Z,27.32
2016-10-23T13:26:22.005Z,27.63
2016-10-23T13:27:34.535Z,27.67
2016-10-23T13:28:47.295Z,27.78
2016-10-23T13:30:00.861Z,27.92
2016-10-23T13:31:14.447Z,27.92
2016-10-23T13:32:27.993Z,27.99
2016-10-23T13:33:41.578Z,28.14
2016-10-23T13:34:54.264Z,28.21
2016-10-23T13:36:07.845Z,28.62
2016-10-23T13:37:20.808Z,28.7
2016-10-23T13:38:34.444Z,28.74
2016-10-23T13:39:47.471Z,28.9
2016-10-23T13:41:01.098Z,29.28
2016-10-23T13:42:14.642Z,29.49
2016-10-23T13:43:27.641Z,29.45
2016-10-23T13:44:40.713Z,29.7
2016-10-23T13:45:53.739Z,29.92
2016-10-23T13:47:07.305Z,30.04
2016-10-23T13:48:20.931Z,30.15
2016-10-23T13:49:34.480Z,30.42
2016-10-23T13:50:48.035Z,30.88
2016-10-23T13:52:01.639Z,31.25
2016-10-23T13:53:15.165Z,31.54
2016-10-23T13:54:28.751Z,31.61
2016-10-23T13:55:42.314Z,31.72
2016-10-23T13:56:55.982Z,31.61
2016-10-23T13:58:09.009Z,31.7
2016-10-23T13:59:22.058Z,31.7
2016-10-23T14:00:35.640Z,31.84
2016-10-23T14:01:49.193Z,31.61
2016-10-23T14:03:02.722Z,31.81
2016-10-23T14:04:16.226Z,31.96
2016-10-23T14:05:28.182Z,32.21
2016-10-23T14:06:41.771Z,32.14
2016-10-23T14:07:55.310Z,32.43
2016-10-23T14:09:08.941Z,32.66
2016-10-23T14:10:21.991Z,33.14
2016-10-23T14:11:35.527Z,33.01
2016-10-23T14:12:48.542Z,33.42
2016-10-23T14:14:01.502Z,33.5
2016-10-23T14:15:14.519Z,33.51
2016-10-23T14:16:28.117Z,33.82
2016-10-23T14:17:41.641Z,33.84
2016-10-23T14:18:54.187Z,34.44
2016-10-23T14:20:07.692Z,35.03
2016-10-23T14:21:21.266Z,35.31
2016-10-23T14:22:34.316Z,35.38
2016-10-23T14:23:47.927Z,35.5
2016-10-23T14:25:01.524Z,35.62
2016-10-23T14:26:15.091Z,34.89
2016-10-23T14:27:28.184Z,34.92
2016-10-23T14:28:41.764Z,35.1
2016-10-23T14:29:55.309Z,34.85
2016-10-23T14:31:07.806Z,35.29
2016-10-23T14:32:20.901Z,35.72
2016-10-23T14:33:33.949Z,36.19
2016-10-23T14:34:47.236Z,36.41
2016-10-23T14:36:00.770Z,36.83
2016-10-23T14:37:14.304Z,37.18
2016-10-23T14:38:27.416Z,37.32
2016-10-23T14:39:40.904Z,37.7
2016-10-23T14:40:54.513Z,37.13
2016-10-23T14:42:06.484Z,36.59
2016-10-23T14:43:20.045Z,35.9
2016-10-23T14:44:33.103Z,35.53
2016-10-23T14:45:46.119Z,35.75
2016-10-23T14:46:59.655Z,35.74
2016-10-23T14:48:13.175Z,35.93
2016-10-23T14:49:26.255Z,36.23
2016-10-23T14:50:39.907Z,36.12
2016-10-23T14:51:53.413Z,35.47
2016-10-23T14:53:06.945Z,35.28
2016-10-23T14:54:20.540Z,35.07
2016-10-23T14:55:33.606Z,34.82
2016-10-23T14:56:46.976Z,35.1
2016-10-23T14:58:00.573Z,35.56
2016-10-23T14:59:14.100Z,36.08
2016-10-23T15:00:27.639Z,36.12
2016-10-23T15:01:41.161Z,36.49
2016-10-23T15:02:54.721Z,37.06
2016-10-23T15:04:08.335Z,37.31
2016-10-23T15:05:21.902Z,37.67
2016-10-23T15:06:34.949Z,37.81
2016-10-23T15:07:48.533Z,37.29
2016-10-23T15:09:02.159Z,37.74
2016-10-23T15:10:15.448Z,38.06
2016-10-23T15:11:29.017Z,38.22
2016-10-23T15:12:42.596Z,38.34
2016-10-23T15:13:55.652Z,38.86
2016-10-23T15:15:09.246Z,39.17
2016-10-23T15:16:23.131Z,39.04
2016-10-23T15:17:36.148Z,38.71
2016-10-23T15:18:50.055Z,38.71
2016-10-23T15:20:03.113Z,38.35
2016-10-23T15:21:16.907Z,37.97
2016-10-23T15:22:30.767Z,37.76
2016-10-23T15:23:44.356Z,37.76
2016-10-23T15:24:57.955Z,37.63
2016-10-23T15:26:11.008Z,37.79
2016-10-23T15:27:24.025Z,38.25
2016-10-23T15:28:37.514Z,38.35
2016-10-23T15:29:51.103Z,38.34
2016-10-23T15:31:04.676Z,38.37
2016-10-23T15:32:18.226Z,38.3
2016-10-23T15:33:31.224Z,38.71
2016-10-23T15:34:44.846Z,39.07
2016-10-23T15:35:57.869Z,39.16
2016-10-23T15:37:11.445Z,39.3
2016-10-23T15:38:25.105Z,39.62
2016-10-23T15:39:38.689Z,40.03
2016-10-23T15:40:51.767Z,40.15
2016-10-23T15:42:05.324Z,40.46
2016-10-23T15:43:18.893Z,40.54
2016-10-23T15:44:32.439Z,40.38
2016-10-23T15:45:45.446Z,40.38
2016-10-23T15:46:58.976Z,40.35
2016-10-23T15:48:12.057Z,40.69
2016-10-23T15:49:25.153Z,40.41